Data for 07/29/2013

Time Sea-Level Adjusted Pressure Absolute Pressure Temperature Relative Humidity Dew Point   
(mb) (inHg) (mb) (inHg) (C) (F) (%) (C) (F)
12:25 1019 30.09 848 25.04 21.2 70.2 44 8.7 47.6
00:05 1017 30.03 846 24.98 15 58.9 61 7.6 45.6
00:10 1017 30.03 846 24.98 14.9 58.7 61 7.5 45.4
00:15 1017 30.03 846 24.98 14.7 58.4 63 7.7 45.9
00:20 1017 30.03 846 24.98 14.4 57.9 63 7.6 45.7
00:25 1017 30.03 846 24.98 14.3 57.8 64 7.6 45.6
00:30 1017 30.03 846 24.98 14.3 57.7 65 7.9 46.1
00:35 1017 30.03 846 24.98 14.1 57.4 64 7.5 45.4
00:40 1017 30.03 846 24.98 14.4 57.9 64 7.8 46
00:45 1017 30.03 846 24.98 14.4 57.8 63 7.6 45.6
00:50 1017 30.03 846 24.98 14.4 57.9 64 7.7 45.8
00:55 1017 30.03 846 24.98 14.3 57.7 65 7.9 46.2
01:00 1017 30.03 846 24.98 14.1 57.3 66 7.9 46.3
01:05 1017 30.03 846 24.98 14 57.1 67 7.9 46.2
01:10 1017 30.03 846 24.98 13.8 56.9 67 7.8 46.1
01:15 1017 30.03 846 24.98 13.7 56.7 67 7.8 46
01:20 1017 30.03 846 24.98 13.7 56.6 68 7.8 46.1
01:25 1017 30.03 846 24.98 13.6 56.5 70 8.3 46.9
01:30 1017 30.03 846 24.98 13.3 55.9 72 8.3 47
01:35 1017 30.03 846 24.98 13 55.4 71 7.8 46.1
01:40 1017 30.03 846 24.98 13 55.5 70 7.7 45.8
01:45 1017 30.03 846 24.98 13.1 55.6 70 7.9 46.2
01:50 1017 30.03 846 24.98 13.1 55.6 70 7.8 46
01:55 1017 30.03 846 24.98 13.4 56 65 6.9 44.4
02:00 1017 30.03 846 24.98 14.1 57.4 64 7.5 45.6
02:05 1017 30.03 846 24.98 14.2 57.6 63 7.3 45.1
02:10 1017 30.03 846 24.98 13.8 56.8 70 8.4 47.2
02:15 1017 30.03 846 24.98 12.9 55.2 73 8.1 46.6
02:20 1017 30.03 846 24.98 12.7 54.8 73 7.9 46.2
02:25 1017 30.03 846 24.98 12.4 54.3 72 7.5 45.5
02:30 1017 30.03 846 24.98 12.6 54.7 73 7.8 46.1
02:35 1017 30.03 846 24.98 12.3 54.2 73 7.6 45.6
02:40 1017 30.03 846 24.98 12.4 54.3 72 7.5 45.5
02:45 1017 30.03 846 24.98 12.5 54.5 72 7.6 45.6
02:50 1017 30.03 846 24.98 12.5 54.4 71 7.5 45.5
02:55 1017 30.03 846 24.98 12.4 54.4 72 7.5 45.4
03:00 1017 30.03 847 25.01 12.4 54.2 71 7.3 45.2
03:05 1017 30.03 847 25.01 12.2 54 72 7.3 45.2
03:10 1017 30.03 847 25.01 12.1 53.8 73 7.3 45.2
03:15 1017 30.03 847 25.01 12 53.5 74 7.4 45.4
03:20 1017 30.03 847 25.01 11.8 53.2 74 7.4 45.2
03:25 1017 30.03 847 25.01 11.6 52.9 75 7.4 45.4
03:30 1017 30.03 847 25.01 11.2 52.1 76 7.2 45
03:35 1017 30.03 847 25.01 11.1 52 76 7 44.7
03:40 1017 30.03 847 25.01 11.2 52.2 74 6.8 44.3
03:45 1017 30.03 847 25.01 11.3 52.3 74 6.8 44.2
03:50 1017 30.03 847 25.01 11.4 52.5 73 6.8 44.3
03:55 1018 30.06 847 25.01 11.5 52.7 73 6.8 44.2
04:00 1018 30.06 847 25.01 11.7 53 73 7.1 44.7
04:05 1018 30.06 847 25.01 11.6 52.9 74 7.2 45
04:10 1018 30.06 847 25.01 11.5 52.6 74 6.9 44.5
04:15 1018 30.06 847 25.01 11.4 52.5 75 7.2 44.9
04:20 1018 30.06 847 25.01 11.1 52.1 75 7 44.5
04:25 1018 30.06 847 25.01 11.5 52.6 73 6.9 44.4
04:30 1018 30.06 847 25.01 11.5 52.8 73 6.9 44.5
04:35 1018 30.06 847 25.01 11.5 52.7 74 7.1 44.8
04:40 1018 30.06 847 25.01 11.4 52.5 74 7 44.6
04:45 1018 30.06 848 25.04 11.5 52.7 73 6.8 44.2
04:50 1018 30.06 848 25.04 11.7 53.1 73 7 44.7
04:55 1018 30.06 848 25.04 11.8 53.2 72 6.9 44.5
05:00 1019 30.09 848 25.04 12 53.6 70 6.8 44.2
05:05 1019 30.09 848 25.04 12 53.7 71 7 44.7
05:10 1019 30.09 848 25.04 12 53.5 71 7 44.5
05:15 1019 30.09 848 25.04 11.9 53.5 72 7.1 44.8
05:20 1019 30.09 848 25.04 11.7 53 74 7.3 45.1
05:25 1019 30.09 848 25.04 11.3 52.4 76 7.2 45
05:30 1019 30.09 848 25.04 11.1 51.9 77 7.1 44.9
05:35 1019 30.09 848 25.04 10.9 51.6 77 7 44.6
05:40 1019 30.09 848 25.04 11.1 51.9 75 6.8 44.2
05:45 1019 30.09 848 25.04 11.4 52.5 75 7.2 44.9
05:50 1019 30.09 848 25.04 11.4 52.6 75 7.2 45
05:55 1019 30.09 848 25.04 11.5 52.7 75 7.2 44.9
06:00 1019 30.09 849 25.07 11.4 52.5 74 7 44.6
06:05 1019 30.09 849 25.07 11.4 52.5 74 6.9 44.4
06:10 1019 30.09 849 25.07 11.7 53 72 6.8 44.3
06:15 1019 30.09 849 25.07 11.6 52.8 73 6.8 44.3
06:20 1019 30.09 849 25.07 12 53.5 72 7.1 44.8
06:25 1019 30.09 849 25.07 12.2 53.9 72 7.3 45.1
06:30 1020 30.12 849 25.07 12.2 54 72 7.4 45.3
06:35 1020 30.12 849 25.07 12.2 54 72 7.3 45.2
06:40 1020 30.12 849 25.07 12.4 54.3 72 7.5 45.5
06:45 1020 30.12 849 25.07 12.7 54.8 72 7.7 45.9
06:50 1020 30.12 849 25.07 12.8 55.1 71 7.7 45.8
06:55 1020 30.12 849 25.07 13.1 55.6 70 7.8 46
07:00 1020 30.12 849 25.07 13.2 55.7 72 8.2 46.8
07:05 1020 30.12 849 25.07 13 55.4 73 8.2 46.8
07:10 1020 30.12 849 25.07 13.2 55.8 73 8.4 47.2
07:05 1020 30.12 849 25.07 13 55.4 73 8.2 46.8
07:10 1020 30.12 849 25.07 13.2 55.8 73 8.4 47.2
07:15 1020 30.12 849 25.07 12.9 55.2 75 8.6 47.5
07:20 1020 30.12 849 25.07 13 55.4 74 8.6 47.5
07:25 1020 30.12 849 25.07 13 55.5 75 8.8 47.8
07:30 1020 30.12 849 25.07 13.4 56.2 73 8.7 47.7
07:35 1020 30.12 849 25.07 13.9 56.9 71 8.7 47.7
07:40 1020 30.12 849 25.07 13.8 56.8 72 8.8 47.8
07:45 1020 30.12 849 25.07 14.2 57.6 69 8.8 47.8
07:50 1020 30.12 849 25.07 14.5 58 69 8.8 47.8
07:55 1020 30.12 849 25.07 14.9 58.8 65 8.5 47.4
08:00 1020 30.12 849 25.07 15.1 59.1 67 9.1 48.4
08:05 1020 30.12 849 25.07 14.9 58.9 66 8.7 47.7
08:10 1020 30.12 849 25.07 15.4 59.7 64 8.8 47.8
08:15 1020 30.12 849 25.07 15.7 60.3 64 8.9 48
08:20 1020 30.12 849 25.07 15.8 60.5 64 9.1 48.3
08:25 1020 30.12 849 25.07 15.9 60.6 62 8.7 47.7
08:30 1020 30.12 849 25.07 16.1 61 61 8.8 47.8
08:35 1020 30.12 849 25.07 16.2 61.1 62 8.9 48
08:40 1020 30.12 849 25.07 16 60.8 63 9 48.1
08:45 1020 30.12 849 25.07 16.2 61.1 62 8.9 48.1
08:50 1020 30.12 849 25.07 16.5 61.6 58 8.3 47
08:55 1020 30.12 849 25.07 17.3 63.1 57 8.8 47.8
09:00 1020 30.12 849 25.07 17.5 63.5 57 9.1 48.4
09:05 1020 30.12 849 25.07 16.9 62.5 57 8.3 47
09:10 1020 30.12 849 25.07 16.7 62.1 58 8.5 47.4
09:15 1020 30.12 849 25.07 16.7 62 58 8.6 47.4
09:20 1020 30.12 849 25.07 16.4 61.4 58 8.2 46.8
09:25 1020 30.12 849 25.07 16.2 61.2 59 8.4 47.2
09:30 1020 30.12 849 25.07 16.5 61.6 60 8.8 47.9
09:35 1020 30.12 849 25.07 16.5 61.7 60 8.7 47.7
09:40 1020 30.12 849 25.07 16.5 61.7 59 8.6 47.5
09:45 1020 30.12 849 25.07 16.5 61.7 59 8.6 47.4
09:50 1020 30.12 849 25.07 16.6 61.8 57 8 46.5
09:55 1020 30.12 849 25.07 17 62.5 54 7.7 45.9
10:00 1020 30.12 849 25.07 17.2 62.9 54 8 46.4
10:05 1019 30.09 849 25.07 17.4 63.4 53 7.8 46.1
10:10 1019 30.09 849 25.07 17.6 63.7 53 8 46.4
10:15 1019 30.09 849 25.07 17.8 64 52 8 46.4
10:20 1019 30.09 849 25.07 17.8 64 52 7.9 46.3
10:25 1019 30.09 849 25.07 17.9 64.1 54 8.4 47.2
10:30 1019 30.09 849 25.07 18.3 64.9 50 7.7 45.8
10:35 1019 30.09 849 25.07 18.2 64.7 52 8.1 46.6
10:40 1019 30.09 849 25.07 18.2 64.8 50 7.8 46.1
10:45 1019 30.09 849 25.07 18.7 65.7 50 8.2 46.8
10:50 1019 30.09 849 25.07 18.5 65.3 51 8.3 47
10:55 1019 30.09 849 25.07 18.8 65.8 51 8.5 47.2
11:00 1019 30.09 848 25.04 18.6 65.5 50 8.1 46.5
11:05 1019 30.09 848 25.04 18.8 65.9 50 8.4 47.1
11:10 1019 30.09 848 25.04 19.4 67 50 8.8 47.9
11:15 1019 30.09 848 25.04 19.3 66.7 49 8.5 47.3
11:20 1019 30.09 848 25.04 19.8 67.6 48 8.5 47.4
11:25 1019 30.09 848 25.04 19.2 66.6 50 8.7 47.6
11:30 1019 30.09 848 25.04 19.4 67 48 8.3 46.9
11:35 1019 30.09 848 25.04 19.5 67 49 8.6 47.4
11:40 1019 30.09 848 25.04 19.4 67 48 8.4 47.1
11:45 1019 30.09 848 25.04 20.2 68.3 45 8.1 46.6
11:50 1019 30.09 848 25.04 20.2 68.4 45 8 46.5
11:55 1019 30.09 848 25.04 21 69.8 45 8.6 47.6
12:00 1019 30.09 848 25.04 20.7 69.2 47 9.1 48.4
12:05 1019 30.09 848 25.04 20.7 69.3 46 8.8 47.8
12:10 1019 30.09 848 25.04 20.7 69.3 45 8.5 47.2
12:15 1019 30.09 848 25.04 21 69.7 46 8.9 48
12:20 1019 30.09 848 25.04 20.8 69.4 46 9 48.1
12:30 1019 30.09 848 25.04 21.1 70 46 9.3 48.7
12:35 1018 30.06 848 25.04 21.3 70.3 44 8.9 47.9
12:40 1018 30.06 848 25.04 21.6 70.9 43 8.8 47.8
12:45 1018 30.06 848 25.04 21.9 71.4 42 8.6 47.4
12:50 1018 30.06 848 25.04 22 71.6 44 9.4 49
12:55 1018 30.06 847 25.01 22.7 72.8 40 8.7 47.6
13:00 1018 30.06 847 25.01 22.7 72.9 41 9 48.3
13:05 1018 30.06 847 25.01 22.8 73.1 38 8.1 46.6
13:10 1018 30.06 847 25.01 22.9 73.1 41 9 48.2
13:15 1018 30.06 847 25.01 23.5 74.2 41 9.7 49.4
13:20 1018 30.06 847 25.01 22.9 73.2 40 8.9 48.1
13:25 1018 30.06 847 25.01 23.3 73.9 37 7.9 46.2
13:30 1018 30.06 847 25.01 23.6 74.5 38 8.7 47.6
13:35 1018 30.06 847 25.01 23.2 73.8 38 8.4 47
13:40 1018 30.06 847 25.01 23.6 74.4 36 7.9 46.2
13:45 1018 30.06 847 25.01 23.4 74.1 36 7.6 45.6
13:50 1018 30.06 847 25.01 23.7 74.6 37 8.2 46.8
13:55 1018 30.06 847 25.01 24.3 75.8 31 6.5 43.7
14:00 1018 30.06 847 25.01 24.5 76.1 32 6.9 44.5
14:05 1018 30.06 847 25.01 24.2 75.5 33 7 44.7
14:10 1018 30.06 847 25.01 24 75.1 33 6.9 44.4
14:15 1018 30.06 847 25.01 24.1 75.3 33 7 44.6
14:20 1017 30.03 847 25.01 24.2 75.6 31 6.3 43.3
14:25 1017 30.03 847 25.01 24.8 76.7 30 6.4 43.4
14:30 1017 30.03 847 25.01 24.9 76.8 29 5.9 42.6
14:35 1017 30.03 847 25.01 25.1 77.3 29 6 42.7
14:40 1017 30.03 846 24.98 25.2 77.3 28 5.5 42
14:45 1017 30.03 847 25.01 25.4 77.7 30 6.6 43.8
14:50 1017 30.03 846 24.98 25.7 78.2 28 6.1 43
14:55 1017 30.03 846 24.98 25.5 78 25 4.6 40.2
15:00 1017 30.03 846 24.98 25.7 78.2 28 5.9 42.6
15:05 1017 30.03 846 24.98 25.7 78.2 27 5.4 41.8
15:10 1017 30.03 846 24.98 25.2 77.4 28 5.5 41.9
15:15 1017 30.03 846 24.98 25.2 77.4 25 4.2 39.6
15:20 1017 30.03 846 24.98 25.6 78.1 27 5.7 42.2
15:25 1017 30.03 846 24.98 25.5 77.9 28 6.2 43.1
15:30 1017 30.03 846 24.98 24.8 76.7 30 6.3 43.3
15:35 1017 30.03 846 24.98 24.3 75.7 32 6.8 44.2
15:40 1017 30.03 846 24.98 24 75.2 32 6.5 43.8
15:45 1017 30.03 846 24.98 23.7 74.6 33 6.7 44.1
15:50 1017 30.03 846 24.98 23.3 73.9 35 7 44.6
15:55 1017 30.03 846 24.98 23.4 74 36 7.5 45.4
16:00 1017 30.03 846 24.98 23.4 74 36 7.7 45.9
16:05 1017 30.03 846 24.98 23.1 73.6 37 7.7 45.8
16:10 1017 30.03 846 24.98 22.9 73.2 37 7.7 45.9
16:15 1017 30.03 846 24.98 22.8 73 37 7.5 45.4
16:20 1017 30.03 846 24.98 23 73.4 38 8.1 46.7
16:25 1017 30.03 846 24.98 22.9 73.3 38 7.9 46.2
16:30 1017 30.03 846 24.98 22.9 73.3 36 7.4 45.3
16:35 1017 30.03 846 24.98 22.8 73.1 37 7.5 45.4
16:40 1017 30.03 846 24.98 22.7 72.9 38 7.7 45.9
16:45 1017 30.03 846 24.98 22.9 73.2 37 7.7 45.9
16:50 1017 30.03 846 24.98 22.6 72.6 38 7.8 46
16:55 1017 30.03 846 24.98 22.8 73.1 37 7.6 45.7
17:00 1017 30.03 846 24.98 22.9 73.1 37 7.5 45.5
17:05 1017 30.03 846 24.98 22.7 72.9 37 7.3 45.1
17:10 1017 30.03 846 24.98 22.7 72.8 36 7.1 44.8
17:15 1017 30.03 846 24.98 22.5 72.5 37 7.2 45
17:20 1017 30.03 846 24.98 22.5 72.4 38 7.5 45.6
17:25 1017 30.03 846 24.98 22.5 72.6 37 7.5 45.5
17:30 1017 30.03 846 24.98 22.4 72.3 38 7.7 45.9
17:35 1017 30.03 846 24.98 22.3 72.1 38 7.6 45.7
17:40 1017 30.03 846 24.98 22.2 71.9 39 7.7 45.8
17:45 1017 30.03 846 24.98 22.1 71.8 39 7.7 45.8
17:50 1017 30.03 846 24.98 22 71.7 39 7.6 45.6
17:55 1017 30.03 846 24.98 22.1 71.7 39 7.6 45.7
18:00 1017 30.03 846 24.98 22 71.6 39 7.6 45.7
18:05 1017 30.03 846 24.98 21.9 71.4 39 7.5 45.6
18:10 1017 30.03 846 24.98 21.8 71.3 39 7.6 45.7
18:15 1017 30.03 846 24.98 21.7 71.1 40 7.7 45.9
18:20 1017 30.03 846 24.98 21.5 70.7 41 8 46.4
18:25 1017 30.03 846 24.98 21.3 70.3 42 7.8 46.1
18:30 1017 30.03 846 24.98 21.2 70.1 42 7.9 46.3
18:35 1017 30.03 846 24.98 21.1 70 42 7.8 46.1
18:40 1017 30.03 846 24.98 21 69.8 41 7.4 45.3
18:45 1017 30.03 846 24.98 20.9 69.6 41 7.4 45.3
18:50 1017 30.03 846 24.98 20.8 69.4 42 7.4 45.4
18:55 1017 30.03 846 24.98 20.6 69 42 7.6 45.6
19:00 1017 30.03 846 24.98 20.5 68.8 44 7.8 46
19:05 1017 30.03 846 24.98 20.3 68.5 45 8 46.4
19:10 1017 30.03 846 24.98 20.2 68.3 45 8 46.4
19:15 1017 30.03 847 25.01 20 68.1 45 7.9 46.1
19:20 1017 30.03 847 25.01 20 67.9 45 7.9 46.1
19:25 1018 30.06 847 25.01 19.9 67.8 46 8 46.4
19:30 1017 30.03 847 25.01 19.8 67.6 46 8.1 46.5
19:35 1017 30.03 847 25.01 19.7 67.4 47 8.2 46.7
19:40 1018 30.06 847 25.01 19.6 67.2 48 8.4 47.1
19:45 1018 30.06 847 25.01 19.4 66.9 49 8.4 47.1
19:50 1018 30.06 847 25.01 19.3 66.8 48 8.3 47
19:55 1018 30.06 847 25.01 19.3 66.7 49 8.5 47.3
20:00 1018 30.06 847 25.01 19.1 66.4 49 8.3 46.9
20:05 1018 30.06 847 25.01 19.1 66.3 48 8.1 46.5
20:10 1018 30.06 847 25.01 19 66.2 48 8 46.3
20:15 1018 30.06 847 25.01 19 66.1 49 8 46.5
20:20 1018 30.06 847 25.01 18.9 66.1 50 8.3 47
20:25 1018 30.06 848 25.04 18.9 66 51 8.6 47.4
20:30 1018 30.06 848 25.04 18.8 65.8 51 8.6 47.5
20:35 1018 30.06 848 25.04 18.7 65.7 51 8.6 47.6
20:40 1018 30.06 848 25.04 18.8 65.8 52 8.7 47.7
20:45 1018 30.06 848 25.04 18.8 65.9 51 8.7 47.7
20:50 1019 30.09 848 25.04 18.9 66 51 8.8 47.8
20:55 1019 30.09 848 25.04 18.9 65.9 52 8.8 47.9
21:00 1019 30.09 848 25.04 18.8 65.9 52 8.8 47.9
21:05 1019 30.09 848 25.04 18.8 65.8 52 8.9 48
21:10 1019 30.09 848 25.04 18.7 65.7 52 8.9 48
21:15 1019 30.09 848 25.04 18.7 65.6 52 8.9 48
21:20 1019 30.09 848 25.04 18.7 65.6 53 8.9 48
21:25 1019 30.09 848 25.04 18.7 65.6 53 8.9 48.1
21:30 1019 30.09 848 25.04 18.6 65.6 53 9 48.2
21:35 1019 30.09 848 25.04 18.6 65.4 53 9 48.3
21:40 1019 30.09 848 25.04 18.5 65.2 54 9.1 48.3
21:45 1019 30.09 848 25.04 18.5 65.2 54 9.1 48.4
21:50 1019 30.09 848 25.04 18.4 65.1 55 9.1 48.5
21:55 1019 30.09 848 25.04 18.3 65 55 9.2 48.5
22:00 1019 30.09 848 25.04 18.2 64.8 55 9.2 48.5
22:05 1019 30.09 848 25.04 18.2 64.7 55 9.2 48.6
22:10 1019 30.09 848 25.04 18.1 64.6 56 9.2 48.6
22:15 1019 30.09 848 25.04 18 64.4 56 9.2 48.6
22:20 1019 30.09 848 25.04 18.1 64.5 56 9.3 48.7
22:25 1019 30.09 848 25.04 17.9 64.2 57 9.4 48.9
22:30 1019 30.09 848 25.04 17.8 64 57 9.4 48.8
22:35 1019 30.09 848 25.04 17.7 63.8 58 9.5 49.1
22:40 1019 30.09 848 25.04 17.5 63.5 59 9.4 49
22:45 1019 30.09 849 25.07 17.5 63.5 59 9.4 49
22:50 1019 30.09 849 25.07 17.4 63.4 59 9.5 49.1
22:55 1019 30.09 849 25.07 17.3 63.1 60 9.5 49.1
23:00 1020 30.12 849 25.07 17.2 62.9 60 9.5 49.1
23:05 1020 30.12 849 25.07 17.1 62.8 61 9.5 49.1
23:10 1020 30.12 849 25.07 17 62.5 61 9.5 49.1
23:15 1020 30.12 849 25.07 16.9 62.4 61 9.4 49
23:20 1020 30.12 849 25.07 16.8 62.3 62 9.5 49.1
23:25 1020 30.12 849 25.07 16.8 62.2 61 9.4 48.9
23:30 1020 30.12 849 25.07 16.8 62.2 61 9.3 48.8
23:35 1020 30.12 849 25.07 16.7 62.1 61 9.3 48.8
23:40 1020 30.12 849 25.07 16.7 62 61 9.3 48.7
23:45 1020 30.12 849 25.07 16.6 61.8 62 9.3 48.7
23:50 1020 30.12 849 25.07 16.5 61.6 62 9.2 48.6
23:55 1020 30.12 849 25.07 16.4 61.6 62 9.3 48.7
24:00 1020 30.12 849 25.07 16.4 61.4 62 9.2 48.5